Corinthiakos — A8UL2 — position and weather

sailwx.info

Track history (hours):
 
Tides and Currents Weather Stations Pressure Air Temp Water Temp Dewpoint Dewpoint Depression Visibility Wind Speed Wind Dir Waves Ship Positions

Corinthiakos

Last reported at 2017-Jan-16 05:30 UTC. Time now 2017-Jan-17 15:01 UTC.
Position N 22°26' E 119°43'.

Length 262 m; draft 10 m.

Type: Cargo ship. MMSI: 636014516.

Date/timePositionNaut miles runAvg speedWind from/ knotsBaromVisibWave heightAir tempDewpointWater temp
2017-Jan-16 05:30N 22°26' E 119°43'1414.9
2017-Jan-16 04:33N 22°29' E 119°58'1312.9
2017-Jan-16 03:33N 22°32' E 120°12'7 6.8
2017-Jan-16 02:33N 22°34' E 120°19'1 0.7
2017-Jan-16 01:33N 22°35' E 120°18'0 0.0
2017-Jan-16 00:33N 22°35' E 120°18'0 0.0
2017-Jan-15 23:32N 22°35' E 120°18'0 0.0
2017-Jan-15 22:28N 22°35' E 120°18'0 0.0
2017-Jan-15 21:29N 22°35' E 120°18'0 0.1
2017-Jan-15 20:33N 22°35' E 120°18'0 0.0
2017-Jan-15 19:29N 22°35' E 120°18'0 0.1
2017-Jan-15 18:31N 22°35' E 120°18'0 0.0
2017-Jan-15 17:32N 22°35' E 120°18'0 0.0
2017-Jan-15 16:30N 22°35' E 120°18'0 0.0
2017-Jan-15 15:30N 22°35' E 120°18'0 0.0
2017-Jan-15 14:30N 22°35' E 120°18'0 0.0
2017-Jan-15 13:30N 22°35' E 120°18'0 0.0
2017-Jan-15 12:33N 22°35' E 120°18'0 0.0
2017-Jan-15 11:33N 22°35' E 120°18'0 0.0
2017-Jan-15 10:23N 22°35' E 120°18'0 0.0
2017-Jan-15 09:29N 22°35' E 120°18'0 0.0
2017-Jan-15 08:30N 22°35' E 120°18'0 0.0
2017-Jan-15 07:28N 22°35' E 120°18'0 0.0
2017-Jan-15 06:33N 22°35' E 120°18'0 0.0
2017-Jan-15 05:33N 22°35' E 120°18'0 0.0
2017-Jan-15 04:25N 22°35' E 120°18'0 0.0
2017-Jan-15 03:33N 22°35' E 120°18'0 0.0
2017-Jan-15 02:31N 22°35' E 120°18'0 0.1
2017-Jan-15 01:33N 22°34' E 120°18'5 4.9
2017-Jan-15 00:33N 22°32' E 120°14'1616.5
2017-Jan-14 23:33N 22°28' E 119°57'  
2017-Jan-11 14:27N 01°15' E 104°03'1112.8
2017-Jan-11 13:34N 01°14' E 103°52'3 2.7
2017-Jan-11 12:33N 01°16' E 103°50'0 0.1
2017-Jan-11 11:29N 01°16' E 103°50'0 0.1
2017-Jan-11 10:30N 01°16' E 103°50'0 0.1
2017-Jan-11 09:30N 01°16' E 103°50'0 0.0
2017-Jan-11 08:29N 01°16' E 103°50'0 0.0
2017-Jan-11 07:31N 01°16' E 103°50'0 0.0
2017-Jan-11 06:32N 01°16' E 103°50'0 0.0
2017-Jan-11 05:32N 01°16' E 103°50'0 0.0
2017-Jan-11 04:33N 01°16' E 103°50'0 0.0
2017-Jan-11 03:33N 01°16' E 103°50'0 0.0
2017-Jan-11 02:31N 01°16' E 103°50'0 0.0
2017-Jan-11 01:31N 01°16' E 103°50'0 0.0
2017-Jan-11 00:32N 01°16' E 103°50'0 0.0
2017-Jan-10 23:33N 01°16' E 103°50'1 1.3
2017-Jan-10 22:33N 01°15' E 103°51'2 2.3
2017-Jan-10 21:34N 01°13' E 103°53'7 6.7
2017-Jan-10 20:33N 01°09' E 103°47'75 9.4
2017-Jan-10 12:33N 01°41' E 102°39'1413.8
2017-Jan-10 11:34N 01°47' E 102°27'1413.8
2017-Jan-10 10:33N 01°53' E 102°15'1413.5
2017-Jan-10 09:32N 02°02' E 102°05'  
Track history (hours):
 
Tides and Currents Weather Stations Pressure Air Temp Water Temp Dewpoint Dewpoint Depression Visibility Wind Speed Wind Dir Waves Ship Positions

Corinthiakos

Last reported at 2017-Jan-16 05:30 UTC. Time now 2017-Jan-17 15:01 UTC.
Position N 22°26' E 119°43'.

Length 262 m; draft 10 m.

Type: Cargo ship. MMSI: 636014516.

Date/timePositionNaut miles runAvg speedWind from/ knotsBaromVisibWave heightAir tempDewpointWater temp
2017-Jan-16 05:30N 22°26' E 119°43'1414.9
2017-Jan-16 04:33N 22°29' E 119°58'1312.9
2017-Jan-16 03:33N 22°32' E 120°12'7 6.8
2017-Jan-16 02:33N 22°34' E 120°19'1 0.7
2017-Jan-16 01:33N 22°35' E 120°18'0 0.0
2017-Jan-16 00:33N 22°35' E 120°18'0 0.0
2017-Jan-15 23:32N 22°35' E 120°18'0 0.0
2017-Jan-15 22:28N 22°35' E 120°18'0 0.0
2017-Jan-15 21:29N 22°35' E 120°18'0 0.1
2017-Jan-15 20:33N 22°35' E 120°18'0 0.0
2017-Jan-15 19:29N 22°35' E 120°18'0 0.1
2017-Jan-15 18:31N 22°35' E 120°18'0 0.0
2017-Jan-15 17:32N 22°35' E 120°18'0 0.0
2017-Jan-15 16:30N 22°35' E 120°18'0 0.0
2017-Jan-15 15:30N 22°35' E 120°18'0 0.0
2017-Jan-15 14:30N 22°35' E 120°18'0 0.0
2017-Jan-15 13:30N 22°35' E 120°18'0 0.0
2017-Jan-15 12:33N 22°35' E 120°18'0 0.0
2017-Jan-15 11:33N 22°35' E 120°18'0 0.0
2017-Jan-15 10:23N 22°35' E 120°18'0 0.0
2017-Jan-15 09:29N 22°35' E 120°18'0 0.0
2017-Jan-15 08:30N 22°35' E 120°18'0 0.0
2017-Jan-15 07:28N 22°35' E 120°18'0 0.0
2017-Jan-15 06:33N 22°35' E 120°18'0 0.0
2017-Jan-15 05:33N 22°35' E 120°18'0 0.0
2017-Jan-15 04:25N 22°35' E 120°18'0 0.0
2017-Jan-15 03:33N 22°35' E 120°18'0 0.0
2017-Jan-15 02:31N 22°35' E 120°18'0 0.1
2017-Jan-15 01:33N 22°34' E 120°18'5 4.9
2017-Jan-15 00:33N 22°32' E 120°14'1616.5
2017-Jan-14 23:33N 22°28' E 119°57'  
2017-Jan-11 14:27N 01°15' E 104°03'1112.8
2017-Jan-11 13:34N 01°14' E 103°52'3 2.7
2017-Jan-11 12:33N 01°16' E 103°50'0 0.1
2017-Jan-11 11:29N 01°16' E 103°50'0 0.1
2017-Jan-11 10:30N 01°16' E 103°50'0 0.1
2017-Jan-11 09:30N 01°16' E 103°50'0 0.0
2017-Jan-11 08:29N 01°16' E 103°50'0 0.0
2017-Jan-11 07:31N 01°16' E 103°50'0 0.0
2017-Jan-11 06:32N 01°16' E 103°50'0 0.0
2017-Jan-11 05:32N 01°16' E 103°50'0 0.0
2017-Jan-11 04:33N 01°16' E 103°50'0 0.0
2017-Jan-11 03:33N 01°16' E 103°50'0 0.0
2017-Jan-11 02:31N 01°16' E 103°50'0 0.0
2017-Jan-11 01:31N 01°16' E 103°50'0 0.0
2017-Jan-11 00:32N 01°16' E 103°50'0 0.0
2017-Jan-10 23:33N 01°16' E 103°50'1 1.3
2017-Jan-10 22:33N 01°15' E 103°51'2 2.3
2017-Jan-10 21:34N 01°13' E 103°53'7 6.7
2017-Jan-10 20:33N 01°09' E 103°47'75 9.4
2017-Jan-10 12:33N 01°41' E 102°39'1413.8
2017-Jan-10 11:34N 01°47' E 102°27'1413.8
2017-Jan-10 10:33N 01°53' E 102°15'1413.5
2017-Jan-10 09:32N 02°02' E 102°05'  

Dump ship's entire track history